CDT,Max TemperatureF,Mean TemperatureF,Min TemperatureF,Max Dew PointF,MeanDew PointF,Min DewpointF,Max Humidity, Mean Humidity, Min Humidity, Max Sea Level PressureIn, Mean Sea Level PressureIn, Min Sea Level PressureIn, Max VisibilityMiles, Mean VisibilityMiles, Min VisibilityMiles, Max Wind SpeedMPH, Mean Wind SpeedMPH, Max Gust SpeedMPH,PrecipitationIn, CloudCover, Events, WindDirDegrees
2012-10-1,64,52,41,37,30,27,70,43,24,30.16,30.07,29.89,10,10,10,20,13,26,0.00,1,,293
2012-10-2,68,54,41,39,34,28,62,46,30,29.87,29.70,29.55,10,10,10,31,14,39,0.00,0,,251
2012-10-3,48,42,35,37,35,32,100,83,66,30.20,30.05,29.82,10,10,6,26,16,37,0.39,5,Rain,359
2012-10-4,37,32,28,36,30,23,100,87,65,30.26,30.23,30.20,10,9,3,30,23,39,0.35,4,Rain-Snow,344
2012-10-5,32,29,26,32,25,19,100,84,74,30.36,30.28,30.23,10,8,1,28,19,33,0.73,5,Rain-Snow,328
2012-10-6,44,32,21,25,20,10,100,63,25,30.36,30.25,30.04,10,10,10,21,10,26,0.00,1,,275
2012-10-7,50,40,30,32,26,21,80,59,37,30.03,29.84,29.69,10,10,10,17,11,24,0.00,6,,260
2012-10-8,46,40,35,41,35,28,100,83,57,29.68,29.59,29.52,10,10,2,24,10,33,0.08,7,Rain,297
2012-10-9,37,32,28,32,28,19,100,82,48,29.99,29.87,29.62,10,9,2,26,16,33,0.64,7,Rain-Snow,318
2012-10-10,37,30,24,36,31,25,100,93,75,30.01,29.94,29.88,10,10,2,15,6,,0.09,4,Snow,268
2012-10-11,37,28,19,28,23,18,100,77,45,30.32,30.23,30.02,10,10,10,21,14,26,0.00,1,,321
2012-10-12,50,34,19,30,24,18,93,64,37,30.30,29.99,29.69,10,10,10,30,13,45,0.00,3,,191
2012-10-13,55,44,32,32,29,23,100,63,38,29.94,29.74,29.61,10,10,10,15,9,21,0.00,2,,342
2012-10-14,59,41,23,37,32,23,100,76,42,29.98,29.93,29.87,10,10,7,12,6,,0.00,1,,266
2012-10-15,69,52,35,41,38,32,100,65,33,29.87,29.66,29.54,10,10,9,21,11,26,0.00,2,Rain,232
2012-10-16,64,48,32,52,42,32,100,74,42,29.58,29.42,29.20,10,10,7,14,9,17,0.03,1,Rain,211
2012-10-17,51,46,41,52,45,41,100,100,100,29.27,29.20,29.16,10,9,4,36,17,47,0.73,6,Rain,288
2012-10-18,44,40,37,45,40,36,100,99,93,29.88,29.58,29.26,10,7,2,38,33,50,1.23,7,Rain,341
2012-10-19,41,37,33,39,36,34,100,96,87,29.88,29.80,29.67,10,10,10,28,18,34,0.00,8,,345
2012-10-20,53,43,33,45,39,34,100,91,62,29.67,29.57,29.51,10,10,0,18,13,24,0.00,3,Fog,190
2012-10-21,48,38,28,43,32,25,93,75,43,30.09,29.88,29.63,10,10,10,24,12,31,0.00,3,,320
2012-10-22,39,32,26,36,29,25,93,80,70,30.14,30.09,29.94,10,10,10,14,8,20,0.00,6,Rain,40
2012-10-23,46,40,35,46,41,36,100,100,100,29.93,29.73,29.64,10,7,1,20,11,25,0.48,8,Rain,140
2012-10-24,37,34,30,37,29,25,100,87,75,29.99,29.93,29.79,10,10,10,21,14,26,0.00,8,,279
2012-10-25,35,32,28,28,25,19,87,74,65,30.12,30.00,29.96,10,10,4,31,19,45,0.36,8,Rain-Snow,305
2012-10-26,32,26,19,21,17,14,86,67,51,30.24,30.20,30.12,10,10,8,28,19,34,0.00,7,Rain-Snow,297
2012-10-27,32,23,14,19,14,10,93,73,41,30.28,30.24,30.21,10,10,10,14,8,18,0.00,6,,292
2012-10-28,28,18,8,27,16,7,100,81,59,30.28,30.22,30.16,10,9,3,15,6,21,0.07,5,Rain-Snow,120
2012-10-29,41,34,26,37,32,27,100,99,87,30.15,30.12,30.09,10,9,3,16,11,20,0.02,7,Rain-Snow,120
2012-10-30,41,38,35,41,38,36,100,100,100,30.09,30.03,29.97,10,8,1,21,11,26,0.00,7,Rain,161
2012-10-31,44,36,28,45,35,28,100,100,100,30.15,30.02,29.93,10,8,1,22,9,29,0.00,6,Rain,339